M I D A S
Marine Information and Data Acquisition System
Tripno 1072 of the Zeeleeuw from 2006-04-19 07:21:08 to 2006-04-19 10:26:23
Back to CruiseResearch ActivitiesStationsMapUnderway DataData graphs

EquipmentUnitsComment
TimeDGPSUTC
LatitudeDGPSDM.mWGS84
LongitudeDGPSDM.mWGS84
HeadingGyrodeg 
SOGDGPSknotsSpeed over ground
COGDGPSdegCourse over ground
DepthEcho soundermeters200 kHz
Missing or incorrect values are displayed as -999
Navigation data collected by the RV Zeeleeuw from 2006-04-19 07:20:00 to 2006-04-19 10:39:15
Time Latitude Longitude Heading SOG COG Depth
2006-04-19 07:21:05 51°13.616 2°56.031 108.8 3.5 287 -999
2006-04-19 07:22:05 51°13.638 2°55.933 118.6 4.1 294 -999
2006-04-19 07:23:05 51°13.673 2°55.834 125.6 4.7 302 -999
2006-04-19 07:24:04 51°13.707 2°55.744 117 3.2 300 10.7
2006-04-19 07:25:04 51°13.721 2°55.738 61.8 1.5 44 10.5
2006-04-19 07:26:05 51°13.716 2°55.726 38.5 1.6 227 -999
2006-04-19 07:27:04 51°13.743 2°55.712 338.5 3.4 333 10.3
2006-04-19 07:28:04 51°13.824 2°55.642 337.2 6.5 333 10
2006-04-19 07:29:05 51°13.924 2°55.563 339.5 6.3 336 -999
2006-04-19 07:30:04 51°14.014 2°55.499 340 5.9 336 9.9
2006-04-19 07:31:05 51°14.102 2°55.431 337 5.8 334 -999
2006-04-19 07:32:05 51°14.203 2°55.334 329.5 8.3 325 -999
2006-04-19 07:33:05 51°14.307 2°55.171 313.9 9 310 -999
2006-04-19 07:34:05 51°14.394 2°54.965 302.3 10.2 295 9.9
2006-04-19 07:35:05 51°14.425 2°54.668 275.8 12.2 270 10
2006-04-19 07:36:05 51°14.355 2°54.352 240.1 13.1 238 9.1
2006-04-19 07:37:05 51°14.248 2°54.044 245.6 13.3 243 8.8
2006-04-19 07:38:04 51°14.142 2°53.744 242.4 13.3 240 8.8
2006-04-19 07:39:05 51°14.037 2°53.431 242.2 13.1 238 9
2006-04-19 07:40:05 51°13.929 2°53.128 245.5 13.2 241 9.3
2006-04-19 07:41:05 51°13.821 2°52.823 245.2 13.3 242 9.5
2006-04-19 07:42:04 51°13.711 2°52.526 241.2 13.2 238 9.6
2006-04-19 07:43:04 51°13.603 2°52.221 241.3 13.2 238 9.8
2006-04-19 07:44:04 51°13.485 2°51.927 243.2 13.2 241 9.8
2006-04-19 07:45:05 51°13.365 2°51.628 236.8 13.2 234 9.9
2006-04-19 07:46:05 51°13.272 2°51.314 256.9 13.2 253 9.9
2006-04-19 07:47:04 51°13.201 2°50.987 253.6 13.3 250 10.2
2006-04-19 07:48:04 51°13.124 2°50.659 247.6 13.2 244 10.5
2006-04-19 07:49:04 51°13.039 2°50.337 251.8 13.2 248 10.7
2006-04-19 07:50:05 51°12.949 2°50.009 251.4 13.3 248 10.8
2006-04-19 07:51:05 51°12.851 2°49.697 240.5 13.2 238 11.1
2006-04-19 07:52:05 51°12.729 2°49.404 234.2 13.3 231 11
2006-04-19 07:53:05 51°12.577 2°49.149 227.9 13.3 227 11
2006-04-19 07:54:04 51°12.427 2°48.897 227.1 13.3 226 10.6
2006-04-19 07:55:05 51°12.276 2°48.628 230 13.5 227 10.3
2006-04-19 07:56:04 51°12.135 2°48.377 232.3 11 231 9.9
2006-04-19 07:57:05 51°12.053 2°48.224 217.5 5.2 217 9.8
2006-04-19 07:58:05 51°12.038 2°48.198 174.6 0.7 311 -999
2006-04-19 07:59:04 51°12.043 2°48.184 156.2 0.6 293 9.8
2006-04-19 08:00:04 51°12.046 2°48.17 144.9 0.5 287 9.9
2006-04-19 08:01:04 51°12.048 2°48.159 133 0.4 280 9.9
2006-04-19 08:02:04 51°12.048 2°48.148 126.7 0.4 269 9.9
2006-04-19 08:03:04 51°12.048 2°48.138 126.9 0.4 272 9.9
2006-04-19 08:04:04 51°12.047 2°48.128 127.7 0.4 266 9.9
2006-04-19 08:05:05 51°12.047 2°48.117 131.5 0.4 259 9.9
2006-04-19 08:06:05 51°12.046 2°48.107 134.4 0.4 264 10
2006-04-19 08:07:04 51°12.046 2°48.097 134.1 0.4 264 10
2006-04-19 08:08:04 51°12.045 2°48.087 133.5 0.4 265 10
2006-04-19 08:09:04 51°12.045 2°48.076 132.6 0.4 262 10
2006-04-19 08:10:04 51°12.044 2°48.066 133.1 0.4 257 10
2006-04-19 08:11:05 51°12.023 2°48.071 163.8 2.6 176 9.8
2006-04-19 08:12:04 51°11.968 2°48.003 246.3 5.9 250 9.5
2006-04-19 08:13:04 51°11.992 2°47.888 326.5 3.8 318 10.1
2006-04-19 08:14:05 51°12.055 2°47.877 22.6 4.4 10 10.6
2006-04-19 08:15:04 51°12.128 2°47.906 29.8 4.2 21 11.1
2006-04-19 08:16:04 51°12.178 2°47.964 56.7 3.5 49 11.3
2006-04-19 08:17:04 51°12.217 2°48.026 47.3 3.2 40 11.4
2006-04-19 08:18:04 51°12.252 2°48.09 60.3 3.3 53 11.5
2006-04-19 08:19:04 51°12.283 2°48.161 62.3 3.2 55 11.5
2006-04-19 08:20:05 51°12.315 2°48.23 58.5 3.2 52 11.5
2006-04-19 08:21:05 51°12.35 2°48.294 57.2 3.2 50 11.5
2006-04-19 08:22:04 51°12.382 2°48.359 61.6 3.2 53 11.5
2006-04-19 08:23:05 51°12.41 2°48.431 66 3.1 59 11.4
2006-04-19 08:24:04 51°12.436 2°48.5 63 3.1 55 11.4
2006-04-19 08:25:04 51°12.466 2°48.567 58.9 3.1 50 11.3
2006-04-19 08:26:05 51°12.5 2°48.631 58.9 3.1 51 11.4
2006-04-19 08:27:05 51°12.531 2°48.697 61.8 3.1 54 11.3
2006-04-19 08:28:04 51°12.56 2°48.765 63.8 3.1 55 11.3
2006-04-19 08:29:04 51°12.589 2°48.833 63.1 3.1 56 11.2
2006-04-19 08:30:04 51°12.618 2°48.9 63.7 3.1 55 11.2
2006-04-19 08:31:05 51°12.648 2°48.969 62.3 3.1 54 11.2
2006-04-19 08:32:05 51°12.678 2°49.035 61.3 3.1 54 11.2
2006-04-19 08:33:05 51°12.708 2°49.102 62.1 3.1 56 11.1
2006-04-19 08:34:04 51°12.736 2°49.169 63.1 3.1 57 11.1
2006-04-19 08:35:05 51°12.766 2°49.24 62.4 3.2 55 11
2006-04-19 08:36:05 51°12.795 2°49.309 61.6 3.1 54 11
2006-04-19 08:37:04 51°12.825 2°49.375 59.2 3.1 52 11
2006-04-19 08:38:05 51°12.86 2°49.437 53.1 3.1 45 11
2006-04-19 08:39:05 51°12.886 2°49.508 72.8 3.6 69 10.9
2006-04-19 08:40:04 51°12.91 2°49.604 70 4.1 68 10.9
2006-04-19 08:41:05 51°12.911 2°49.711 99.4 4.1 102 10.8
2006-04-19 08:42:04 51°12.881 2°49.812 120.3 4.6 125 10.6
2006-04-19 08:43:05 51°12.841 2°49.903 113.2 3.5 117 10.4
2006-04-19 08:44:04 51°12.851 2°49.965 51 2.4 36 10.3
2006-04-19 08:45:04 51°12.883 2°49.974 15.9 1.9 349 10.4
2006-04-19 08:46:05 51°12.939 2°49.973 24.9 4.9 18 10.5
2006-04-19 08:47:05 51°13.006 2°50.106 65.2 8.3 60 10.5
2006-04-19 08:48:05 51°13.106 2°50.331 60.8 11.7 55 10.2
2006-04-19 08:49:04 51°13.204 2°50.605 65 12.1 60 10
2006-04-19 08:50:05 51°13.3 2°50.894 65.1 12.1 60 9.9
2006-04-19 08:51:05 51°13.401 2°51.174 65.9 12.2 62 9.8
2006-04-19 08:52:04 51°13.503 2°51.447 66.3 12.2 61 9.7
2006-04-19 08:53:04 51°13.599 2°51.73 65.9 12.1 60 9.6
2006-04-19 08:54:05 51°13.696 2°52.015 65.5 12 63 9.5
2006-04-19 08:55:05 51°13.791 2°52.297 64.9 12 60 9.4
2006-04-19 08:56:04 51°13.889 2°52.568 66 12 61 9.3
2006-04-19 08:57:05 51°13.988 2°52.85 64.1 11.9 60 9.1
2006-04-19 08:58:04 51°14.085 2°53.121 63.7 12 58 8.8
2006-04-19 08:59:05 51°14.185 2°53.4 68.1 11.9 63 8.5
2006-04-19 09:00:04 51°14.289 2°53.656 48.9 11.8 39 8.3
2006-04-19 09:01:05 51°14.465 2°53.815 32 12.1 25 8.4
2006-04-19 09:02:04 51°14.649 2°53.934 18.9 12.6 8 9.5
2006-04-19 09:03:05 51°14.857 2°53.879 350.4 12.6 338 8.1
2006-04-19 09:04:04 51°15.002 2°53.645 310.4 13 301 8.2
2006-04-19 09:05:04 51°15.018 2°53.304 263.7 13.3 258 8.7
2006-04-19 09:06:05 51°14.952 2°52.956 256.8 13.6 254 9.5
2006-04-19 09:07:05 51°14.89 2°52.614 251.9 13.4 249 8.8
2006-04-19 09:08:04 51°14.823 2°52.279 257.2 13.5 253 8.7
2006-04-19 09:09:04 51°14.733 2°51.947 248 13.7 245 8.8
2006-04-19 09:10:05 51°14.655 2°51.599 251.8 13.8 247 8.9
2006-04-19 09:11:05 51°14.569 2°51.261 256.4 13.8 253 8.8
2006-04-19 09:12:04 51°14.495 2°50.942 248.4 11.9 245 8.9
2006-04-19 09:13:04 51°14.432 2°50.697 255 7.6 251 9.1
2006-04-19 09:14:04 51°14.394 2°50.576 231.6 2.6 235 9
2006-04-19 09:15:05 51°14.395 2°50.562 214.4 0.3 303 -999
2006-04-19 09:16:05 51°14.398 2°50.552 210.6 0.4 287 8.9
2006-04-19 09:17:05 51°14.4 2°50.542 202.1 0.4 282 9.1
2006-04-19 09:18:04 51°14.403 2°50.532 193.1 0.4 291 9.2
2006-04-19 09:19:05 51°14.406 2°50.521 183.5 0.5 292 9.1
2006-04-19 09:20:05 51°14.405 2°50.508 174.5 0.7 220 9.2
2006-04-19 09:21:04 51°14.397 2°50.498 169.6 0.6 218 9.1
2006-04-19 09:22:04 51°14.351 2°50.458 222.8 6.2 227 8.9
2006-04-19 09:23:04 51°14.249 2°50.317 212.5 9.2 212 8.5
2006-04-19 09:24:05 51°14.122 2°50.158 216.4 9.7 216 8
2006-04-19 09:25:04 51°14.022 2°49.964 234.2 9.6 232 7.7
2006-04-19 09:26:05 51°13.969 2°49.788 273.4 5.4 271 7.7
2006-04-19 09:27:05 51°14.007 2°49.695 343.8 4.3 333 8
2006-04-19 09:28:05 51°14.075 2°49.704 27.5 4.4 19 8.6
2006-04-19 09:29:04 51°14.147 2°49.743 28.4 4.7 19 8.9
2006-04-19 09:30:04 51°14.213 2°49.783 32.5 3.9 22 9.3
2006-04-19 09:31:04 51°14.27 2°49.819 32.5 3.3 20 9.6
2006-04-19 09:32:05 51°14.314 2°49.856 44.2 2.7 35 9.7
2006-04-19 09:33:05 51°14.34 2°49.905 64.6 2.4 58 9.8
2006-04-19 09:34:04 51°14.354 2°49.964 75 2.6 74 9.7
2006-04-19 09:35:04 51°14.367 2°50.036 74 2.9 73 9.6
2006-04-19 09:36:05 51°14.39 2°50.103 58.3 2.9 52 9.6
2006-04-19 09:37:04 51°14.418 2°50.166 61.6 3 56 9.7
2006-04-19 09:38:05 51°14.443 2°50.236 63 3 59 9.7
2006-04-19 09:39:04 51°14.468 2°50.303 63.1 2.9 60 9.7
2006-04-19 09:40:04 51°14.492 2°50.371 64 2.9 62 9.8
2006-04-19 09:41:04 51°14.517 2°50.439 63.2 3 61 9.8
2006-04-19 09:42:04 51°14.543 2°50.506 61.5 3 58 9.9
2006-04-19 09:43:04 51°14.57 2°50.572 60.7 3 57 9.9
2006-04-19 09:44:05 51°14.597 2°50.639 60.8 3 58 10
2006-04-19 09:45:05 51°14.624 2°50.705 60.9 2.9 57 10
2006-04-19 09:46:04 51°14.65 2°50.769 60.7 2.9 59 10
2006-04-19 09:47:05 51°14.677 2°50.836 61.7 2.9 60 10
2006-04-19 09:48:04 51°14.701 2°50.901 61.9 2.9 60 10.1
2006-04-19 09:49:05 51°14.727 2°50.967 60.4 2.9 58 10.1
2006-04-19 09:50:04 51°14.754 2°51.031 60.7 2.9 56 10.1
2006-04-19 09:51:04 51°14.78 2°51.097 60.6 3 58 10.2
2006-04-19 09:52:05 51°14.806 2°51.164 61.8 2.9 59 10.1
2006-04-19 09:53:05 51°14.831 2°51.228 60.6 2.8 58 10.2
2006-04-19 09:54:05 51°14.857 2°51.291 60.8 2.9 55 10.2
2006-04-19 09:55:05 51°14.882 2°51.356 61.6 2.9 58 10.2
2006-04-19 09:56:05 51°14.907 2°51.421 61.6 2.9 60 10.2
2006-04-19 09:57:05 51°14.934 2°51.485 61.8 2.9 58 10.3
2006-04-19 09:58:05 51°14.955 2°51.553 74.1 2.8 75 10.3
2006-04-19 09:59:05 51°14.949 2°51.648 100.1 4.3 105 10.1
2006-04-19 10:00:05 51°14.912 2°51.753 125.5 4.7 132 9.8
2006-04-19 10:01:05 51°14.84 2°51.811 158.2 5 166 9.4
2006-04-19 10:02:05 51°14.753 2°51.8 193.6 5.6 199 9.1
2006-04-19 10:03:04 51°14.687 2°51.716 237.6 4.6 239 9.1
2006-04-19 10:04:04 51°14.668 2°51.628 266.2 2.9 259 9.2
2006-04-19 10:05:05 51°14.663 2°51.562 277.4 2.2 267 9.2
2006-04-19 10:06:05 51°14.663 2°51.51 282.6 1.8 269 9.3
2006-04-19 10:07:05 51°14.663 2°51.466 284.5 1.5 271 9.3
2006-04-19 10:08:05 51°14.662 2°51.432 284.4 1.2 267 9.3
2006-04-19 10:09:05 51°14.662 2°51.403 285.7 1 269 9.3
2006-04-19 10:10:04 51°14.661 2°51.377 287.1 0.9 270 9.4
2006-04-19 10:11:05 51°14.661 2°51.354 293.1 0.8 270 9.4
2006-04-19 10:12:05 51°14.661 2°51.333 301.8 1.1 278 9.4
2006-04-19 10:13:05 51°14.65 2°51.244 246 5.6 237 9.5
2006-04-19 10:14:05 51°14.555 2°51.244 136.3 6.7 130 8.9
2006-04-19 10:15:05 51°14.543 2°51.483 90.7 11.3 88 8.6
2006-04-19 10:16:05 51°14.557 2°51.795 88.9 12 89 8.4
2006-04-19 10:17:05 51°14.574 2°52.112 82.4 11.9 82 8.1
2006-04-19 10:18:05 51°14.586 2°52.43 85.6 12 82 8.1
2006-04-19 10:19:05 51°14.59 2°52.75 91.8 12.1 91 7.9
2006-04-19 10:20:05 51°14.592 2°53.069 86.4 11.9 84 7.6
2006-04-19 10:21:05 51°14.623 2°53.38 84.1 12 84 7.3
2006-04-19 10:22:05 51°14.61 2°53.704 98.7 12.6 98 8.1
2006-04-19 10:23:05 51°14.584 2°54.04 97.1 12.7 94 9.1
2006-04-19 10:24:05 51°14.552 2°54.367 104.6 12.3 105 9.1
2006-04-19 10:25:05 51°14.503 2°54.683 110.1 12.4 109 9.2
2006-04-19 10:26:05 51°14.407 2°54.974 122.2 12.6 119 8.8
2006-04-19 10:27:05 51°14.288 2°55.231 137.1 11.3 133 8.7
2006-04-19 10:28:05 51°14.157 2°55.391 154.9 8.5 151 -999
2006-04-19 10:29:05 51°14.054 2°55.469 160 6.4 155 9
2006-04-19 10:30:05 51°13.963 2°55.537 159 5.7 155 9
2006-04-19 10:31:05 51°13.884 2°55.593 161.1 4.8 156 -999
2006-04-19 10:32:05 51°13.819 2°55.642 156.4 4.1 151 -999
2006-04-19 10:33:05 51°13.766 2°55.705 144.1 3.9 139 8.7
2006-04-19 10:34:05 51°13.721 2°55.777 138.6 3.8 134 9.2
2006-04-19 10:35:04 51°13.68 2°55.855 131.8 3.8 126 8.1
2006-04-19 10:36:04 51°13.645 2°55.934 130.1 3.4 125 8
2006-04-19 10:37:05 51°13.621 2°56.009 118.7 3 113 7.9
2006-04-19 10:38:05 51°13.608 2°56.075 109.4 1.9 104 6.5
2006-04-19 10:39:06 51°13.602 2°56.097 123.5 0.4 131 -999